createdAt,value
2022-12-27T00:00:59.268Z,1.27
2022-12-27T00:03:27.240Z,1.10
2022-12-27T00:05:55.317Z,1.37
2022-12-27T00:08:23.268Z,1.27
2022-12-27T00:10:52.668Z,1.20
2022-12-27T00:13:20.598Z,1.20
2022-12-27T00:15:48.520Z,1.30
2022-12-27T00:18:16.430Z,1.50
2022-12-27T00:20:44.329Z,1.63
2022-12-27T00:23:12.232Z,1.33
2022-12-27T00:25:40.142Z,1.33
2022-12-27T00:28:09.431Z,1.20
2022-12-27T00:30:37.437Z,1.50
2022-12-27T00:33:05.475Z,1.33
2022-12-27T00:35:33.645Z,1.33
2022-12-27T00:38:01.571Z,1.27
2022-12-27T00:40:29.473Z,1.33
2022-12-27T00:42:57.385Z,1.03
2022-12-27T00:45:26.735Z,1.37
2022-12-27T00:47:54.642Z,1.60
2022-12-27T00:50:22.576Z,1.20
2022-12-27T00:52:50.491Z,1.30
2022-12-27T00:55:18.704Z,1.50
2022-12-27T00:57:46.632Z,1.43
2022-12-27T01:00:16.049Z,1.50
2022-12-27T01:02:45.454Z,1.47
2022-12-27T01:05:13.382Z,1.60
2022-12-27T01:07:41.291Z,1.50
2022-12-27T01:10:09.941Z,1.30
2022-12-27T01:12:38.090Z,2.70
2022-12-27T01:15:07.452Z,1.20
2022-12-27T01:17:35.624Z,1.70
2022-12-27T01:20:06.094Z,1.70
2022-12-27T01:22:34.463Z,1.50
2022-12-27T01:25:02.378Z,1.63
2022-12-27T01:27:30.602Z,1.30
2022-12-27T01:29:58.983Z,1.53
2022-12-27T01:32:27.143Z,1.47
2022-12-27T01:34:55.083Z,1.40
2022-12-27T01:37:24.423Z,1.50
2022-12-27T01:39:52.333Z,1.37
2022-12-27T01:42:38.170Z,1.63
2022-12-27T01:45:13.375Z,1.43
2022-12-27T01:47:48.046Z,1.60
2022-12-27T01:50:21.279Z,1.30
2022-12-27T01:52:54.363Z,1.43
2022-12-27T01:55:28.007Z,1.60
2022-12-27T01:57:59.154Z,1.30
2022-12-27T02:00:27.145Z,1.33
2022-12-27T02:02:55.205Z,1.73
2022-12-27T02:05:24.756Z,1.80
2022-12-27T02:08:10.305Z,1.50
2022-12-27T02:10:38.327Z,2.10
2022-12-27T02:13:07.000Z,1.67
2022-12-27T02:15:35.912Z,1.30
2022-12-27T02:18:03.904Z,1.23
2022-12-27T02:20:39.503Z,1.83
2022-12-27T02:23:59.960Z,1.80
2022-12-27T02:26:41.315Z,2.40
2022-12-27T02:29:30.704Z,1.90
2022-12-27T02:32:02.732Z,1.53
2022-12-27T02:34:35.163Z,1.93
2022-12-27T02:37:06.238Z,1.50
2022-12-27T02:39:36.226Z,1.73
2022-12-27T02:42:21.963Z,1.60
2022-12-27T02:45:14.325Z,1.57
2022-12-27T02:48:00.221Z,1.60
2022-12-27T02:50:51.650Z,1.97
2022-12-27T02:53:25.583Z,1.30
2022-12-27T02:56:17.919Z,1.90
2022-12-27T02:58:57.912Z,1.80
2022-12-27T03:01:50.896Z,1.70
2022-12-27T03:04:28.500Z,1.30
2022-12-27T03:07:15.249Z,1.87
2022-12-27T03:10:07.105Z,1.53
2022-12-27T03:13:06.914Z,1.47
2022-12-27T03:15:58.251Z,2.20
2022-12-27T03:18:44.307Z,1.67
2022-12-27T03:21:33.400Z,1.53
2022-12-27T03:24:20.281Z,1.60
2022-12-27T03:26:48.897Z,1.67
2022-12-27T03:29:36.927Z,1.90
2022-12-27T03:32:25.384Z,1.90
2022-12-27T03:34:56.697Z,1.97
2022-12-27T03:37:45.840Z,2.00
2022-12-27T03:40:19.116Z,2.47
2022-12-27T03:43:08.499Z,1.80
2022-12-27T03:46:13.869Z,2.00
2022-12-27T03:48:49.791Z,1.40
2022-12-27T03:51:21.303Z,1.97
2022-12-27T03:53:52.388Z,2.63
2022-12-27T03:56:20.600Z,2.30
2022-12-27T03:58:48.515Z,1.90
2022-12-27T04:01:16.517Z,2.00
2022-12-27T04:03:44.835Z,1.80
2022-12-27T04:06:12.753Z,2.30
2022-12-27T04:08:59.417Z,2.13
2022-12-27T04:11:44.721Z,2.07
2022-12-27T04:14:30.187Z,1.90
2022-12-27T04:17:15.269Z,2.50
2022-12-27T04:20:00.500Z,2.00
2022-12-27T04:22:46.017Z,1.70
2022-12-27T04:25:32.755Z,2.30
2022-12-27T04:28:18.250Z,1.60
2022-12-27T04:31:03.586Z,2.20
2022-12-27T04:33:48.907Z,2.50
2022-12-27T04:36:16.842Z,2.50
2022-12-27T04:38:44.763Z,2.00
2022-12-27T04:41:31.527Z,2.30
2022-12-27T04:44:16.929Z,2.00
2022-12-27T04:47:02.604Z,2.30
2022-12-27T04:49:47.969Z,2.07
2022-12-27T04:52:35.472Z,1.90
2022-12-27T04:55:11.604Z,1.60
2022-12-27T04:57:40.927Z,2.20
2022-12-27T05:00:23.945Z,1.90
2022-12-27T05:02:52.216Z,2.00
2022-12-27T05:05:20.574Z,2.10
2022-12-27T05:08:06.184Z,1.90
2022-12-27T05:10:51.677Z,1.93
2022-12-27T05:13:38.712Z,1.50
2022-12-27T05:16:07.131Z,1.67
2022-12-27T05:18:35.074Z,2.30
2022-12-27T05:21:04.165Z,1.93
2022-12-27T05:23:49.506Z,2.47
2022-12-27T05:26:21.799Z,1.97
2022-12-27T05:28:52.777Z,2.03
2022-12-27T05:31:21.079Z,1.93
2022-12-27T05:33:49.272Z,3.33
2022-12-27T05:36:17.303Z,3.77
2022-12-27T05:38:45.264Z,3.43
2022-12-27T05:41:13.709Z,2.50
2022-12-27T05:43:41.769Z,2.43
2022-12-27T05:46:12.367Z,2.00
2022-12-27T05:48:40.585Z,2.30
2022-12-27T05:51:09.504Z,2.20
2022-12-27T05:53:37.670Z,2.03
2022-12-27T05:56:06.275Z,2.47
2022-12-27T05:58:34.307Z,2.40
2022-12-27T06:01:02.751Z,2.00
2022-12-27T06:03:32.177Z,2.07
2022-12-27T06:06:04.521Z,2.30
2022-12-27T06:08:33.000Z,2.10
2022-12-27T06:11:06.042Z,2.07
2022-12-27T06:13:34.165Z,2.10
2022-12-27T06:16:02.661Z,2.30
2022-12-27T06:18:33.737Z,2.40
2022-12-27T06:21:06.228Z,1.97
2022-12-27T06:23:34.287Z,1.60
2022-12-27T06:26:06.012Z,2.07
2022-12-27T06:28:34.153Z,1.80
2022-12-27T06:31:02.509Z,2.10
2022-12-27T06:33:31.856Z,1.30
2022-12-27T06:36:00.245Z,1.80
2022-12-27T06:38:28.137Z,2.13
2022-12-27T06:41:01.978Z,2.10
2022-12-27T06:43:29.988Z,1.60
2022-12-27T06:45:58.437Z,1.90
2022-12-27T06:48:26.359Z,2.10
2022-12-27T06:50:55.872Z,1.70
2022-12-27T06:53:23.814Z,2.00
2022-12-27T06:55:51.719Z,2.07
2022-12-27T06:58:19.663Z,2.00
2022-12-27T07:00:47.653Z,1.87
2022-12-27T07:03:15.707Z,2.13
2022-12-27T07:05:43.658Z,1.70
2022-12-27T07:08:13.011Z,1.97
2022-12-27T07:10:40.940Z,1.83
2022-12-27T07:13:08.897Z,2.10
2022-12-27T07:15:36.815Z,2.00
2022-12-27T07:18:04.879Z,2.00
2022-12-27T07:20:32.827Z,1.87
2022-12-27T07:23:00.702Z,1.97
2022-12-27T07:25:29.995Z,2.10
2022-12-27T07:27:57.910Z,1.90
2022-12-27T07:30:25.853Z,2.13
2022-12-27T07:32:53.807Z,2.00
2022-12-27T07:35:21.693Z,1.70
2022-12-27T07:37:49.624Z,1.90
2022-12-27T07:40:17.721Z,1.63
2022-12-27T07:42:48.368Z,1.53
2022-12-27T07:45:16.336Z,1.80
2022-12-27T07:47:44.274Z,1.50
2022-12-27T07:50:12.181Z,1.77
2022-12-27T07:52:40.426Z,1.73
2022-12-27T07:55:08.781Z,1.80
2022-12-27T07:57:36.704Z,1.90
2022-12-27T08:00:07.593Z,2.57
2022-12-27T08:02:35.617Z,1.63
2022-12-27T08:05:03.825Z,1.70
2022-12-27T08:07:31.782Z,1.80
2022-12-27T08:09:59.717Z,1.70
2022-12-27T08:12:27.752Z,1.20
2022-12-27T08:14:55.670Z,1.60
2022-12-27T08:17:27.221Z,1.70
2022-12-27T08:19:57.601Z,1.80
2022-12-27T08:22:25.594Z,2.03
2022-12-27T08:24:53.632Z,1.57
2022-12-27T08:27:22.249Z,1.53
2022-12-27T08:29:50.172Z,1.30
2022-12-27T08:32:18.220Z,1.60
2022-12-27T08:34:47.618Z,2.10
2022-12-27T08:37:16.085Z,1.90
2022-12-27T08:39:44.028Z,2.20
2022-12-27T08:42:13.041Z,2.17
2022-12-27T08:44:40.949Z,2.30
2022-12-27T08:47:08.884Z,3.87
2022-12-27T08:49:36.814Z,1.70
2022-12-27T08:52:06.811Z,2.50
2022-12-27T08:54:34.755Z,2.90
2022-12-27T08:57:02.766Z,1.73
2022-12-27T08:59:30.650Z,3.20
2022-12-27T09:01:58.630Z,2.40
2022-12-27T09:04:26.671Z,2.57
2022-12-27T09:06:54.616Z,2.27
2022-12-27T09:09:23.919Z,3.20
2022-12-27T09:11:51.836Z,3.23
2022-12-27T09:14:20.242Z,3.47
2022-12-27T09:16:48.181Z,3.00
2022-12-27T09:19:16.450Z,2.60
2022-12-27T09:21:45.037Z,2.40
2022-12-27T09:24:13.540Z,3.10
2022-12-27T09:26:42.887Z,2.20
2022-12-27T09:29:11.715Z,3.10
2022-12-27T09:31:39.648Z,2.10
2022-12-27T09:34:07.582Z,2.77
2022-12-27T09:36:35.568Z,5.47
2022-12-27T09:39:03.443Z,2.30
2022-12-27T09:42:45.074Z,2.83
2022-12-27T09:44:36.618Z,3.17
2022-12-27T09:47:07.475Z,2.57
2022-12-27T09:49:39.635Z,2.40
2022-12-27T09:52:13.163Z,3.43
2022-12-27T09:54:49.352Z,2.90
2022-12-27T09:57:22.679Z,2.97
2022-12-27T10:02:59.683Z,2.43
2022-12-27T10:05:33.880Z,2.03
2022-12-27T10:08:12.914Z,2.80
2022-12-27T10:10:44.078Z,2.10
2022-12-27T10:13:22.856Z,2.27
2022-12-27T10:15:55.897Z,1.97
2022-12-27T10:18:33.888Z,2.60
2022-12-27T10:21:06.859Z,1.90
2022-12-27T10:23:36.636Z,2.17
2022-12-27T10:26:08.011Z,1.50
2022-12-27T10:28:40.962Z,2.60
2022-12-27T10:31:15.429Z,1.80
2022-12-27T10:33:43.773Z,1.90
2022-12-27T10:36:14.590Z,2.80
2022-12-27T10:38:42.633Z,2.27
2022-12-27T10:41:21.829Z,2.03
2022-12-27T10:43:53.185Z,4.33
2022-12-27T10:46:27.520Z,2.20
2022-12-27T10:51:49.174Z,2.20
2022-12-27T10:54:18.225Z,1.60
2022-12-27T10:56:46.211Z,1.73
2022-12-27T10:59:17.733Z,1.43
2022-12-27T11:01:46.741Z,1.50
2022-12-27T11:04:20.763Z,1.23
2022-12-27T11:06:51.615Z,1.80
2022-12-27T11:09:27.625Z,1.63
2022-12-27T11:12:13.152Z,2.30
2022-12-27T11:14:42.875Z,1.60
2022-12-27T11:17:11.422Z,1.47
2022-12-27T11:19:42.107Z,2.00
2022-12-27T11:22:10.255Z,1.90
2022-12-27T11:24:38.403Z,1.80
2022-12-27T11:27:06.403Z,1.80
2022-12-27T11:29:34.710Z,2.00
2022-12-27T11:32:09.105Z,1.80
2022-12-27T11:34:40.152Z,1.77
2022-12-27T11:37:13.197Z,1.70
2022-12-27T11:39:43.288Z,2.47
2022-12-27T11:42:18.428Z,2.17
2022-12-27T11:44:55.328Z,1.47
2022-12-27T11:47:31.722Z,1.37
2022-12-27T11:50:07.400Z,1.83
2022-12-27T11:52:59.028Z,2.40
2022-12-27T11:55:40.380Z,1.40
2022-12-27T11:58:33.869Z,2.33
2022-12-27T12:01:15.101Z,1.73
2022-12-27T12:04:07.750Z,2.20
2022-12-27T12:06:43.820Z,4.30
2022-12-27T12:09:45.763Z,3.63
2022-12-27T12:12:46.483Z,2.13
2022-12-27T12:15:44.069Z,1.80
2022-12-27T12:18:25.594Z,2.03
2022-12-27T12:21:26.635Z,2.10
2022-12-27T12:24:33.443Z,2.30
2022-12-27T12:27:15.746Z,2.77
2022-12-27T12:30:16.817Z,3.20
2022-12-27T12:32:56.394Z,2.00
2022-12-27T12:35:36.894Z,2.43
2022-12-27T12:38:12.258Z,2.27
2022-12-27T12:41:15.769Z,1.80
2022-12-27T12:44:01.551Z,1.67
2022-12-27T12:46:33.279Z,2.43
2022-12-27T12:49:10.387Z,2.87
2022-12-27T12:51:49.673Z,2.40
2022-12-27T12:54:30.128Z,2.00
2022-12-27T12:57:10.812Z,1.97
2022-12-27T12:59:55.092Z,2.53
2022-12-27T13:02:59.881Z,1.67
2022-12-27T13:05:34.528Z,2.20
2022-12-27T13:08:10.010Z,2.10
2022-12-27T13:10:58.022Z,1.90
2022-12-27T13:13:34.735Z,4.33
2022-12-27T13:16:13.972Z,2.70
2022-12-27T13:18:49.210Z,1.77
2022-12-27T13:21:25.151Z,2.60
2022-12-27T13:24:02.063Z,2.80
2022-12-27T13:26:40.096Z,1.77
2022-12-27T13:29:37.679Z,1.70
2022-12-27T13:32:14.124Z,2.07
2022-12-27T13:34:49.475Z,2.20
2022-12-27T13:37:24.072Z,1.77
2022-12-27T13:40:09.153Z,2.00
2022-12-27T13:43:05.858Z,1.43
2022-12-27T13:45:47.996Z,1.87
2022-12-27T13:48:28.056Z,1.70
2022-12-27T13:51:06.881Z,1.70
2022-12-27T13:54:22.975Z,1.67
2022-12-27T13:56:58.185Z,2.33
2022-12-27T13:59:57.389Z,2.57
2022-12-27T14:02:45.617Z,1.80
2022-12-27T14:05:50.077Z,1.70
2022-12-27T14:08:24.531Z,2.07
2022-12-27T14:11:00.395Z,1.60
2022-12-27T14:13:30.271Z,1.87
2022-12-27T14:16:32.017Z,2.10
2022-12-27T14:19:11.280Z,1.77
2022-12-27T14:21:56.831Z,2.23
2022-12-27T14:24:45.135Z,1.83
2022-12-27T14:27:41.468Z,2.00
2022-12-27T14:30:37.999Z,1.70
2022-12-27T14:33:42.833Z,1.70
2022-12-27T14:36:50.876Z,2.00
2022-12-27T14:39:56.735Z,2.60
2022-12-27T14:46:29.501Z,2.40
2022-12-27T14:49:27.637Z,2.03
2022-12-27T14:52:28.464Z,2.20
2022-12-27T14:55:25.125Z,2.20
2022-12-27T14:58:03.722Z,2.67
2022-12-27T15:00:53.826Z,2.10
2022-12-27T15:03:35.815Z,2.63
2022-12-27T15:06:12.772Z,2.60
2022-12-27T15:08:52.078Z,3.30
2022-12-27T15:11:35.266Z,5.77
2022-12-27T15:14:17.930Z,5.10
2022-12-27T15:16:54.220Z,3.67
2022-12-27T15:19:39.303Z,3.67
2022-12-27T15:22:12.679Z,3.67
2022-12-27T15:24:51.634Z,2.80
2022-12-27T15:27:26.798Z,3.90
2022-12-27T15:30:20.193Z,2.57
2022-12-27T15:32:54.662Z,3.27
2022-12-27T15:35:40.510Z,3.17
2022-12-27T15:38:14.657Z,3.13
2022-12-27T15:41:16.265Z,3.27
2022-12-27T15:44:14.028Z,3.40
2022-12-27T15:46:58.450Z,3.63
2022-12-27T15:49:45.619Z,3.00
2022-12-27T15:52:20.396Z,3.53
2022-12-27T15:55:01.296Z,2.40
2022-12-27T15:57:55.781Z,2.90
2022-12-27T16:00:33.541Z,3.30
2022-12-27T16:03:03.238Z,2.33
2022-12-27T16:05:54.280Z,2.80
2022-12-27T16:08:34.378Z,3.00
2022-12-27T16:11:04.458Z,2.23
2022-12-27T16:13:52.971Z,2.23
2022-12-27T16:16:52.239Z,2.70
2022-12-27T16:19:56.179Z,2.70
2022-12-27T16:22:32.839Z,2.87
2022-12-27T16:25:01.408Z,3.50
2022-12-27T16:27:32.629Z,3.90
2022-12-27T16:30:01.225Z,4.33
2022-12-27T16:32:30.553Z,7.77
2022-12-27T16:35:13.415Z,4.73
2022-12-27T16:37:45.485Z,6.37
2022-12-27T16:40:32.281Z,4.30
2022-12-27T16:43:38.592Z,3.37
2022-12-27T16:46:28.396Z,2.80
2022-12-27T16:49:27.682Z,5.27
2022-12-27T16:52:21.273Z,10.77
2022-12-27T16:54:55.388Z,4.07
2022-12-27T16:57:34.596Z,3.50
2022-12-27T17:00:05.507Z,2.83
2022-12-27T17:02:40.369Z,3.00
2022-12-27T17:05:41.915Z,3.10
2022-12-27T17:08:20.162Z,2.97
2022-12-27T17:11:23.643Z,3.03
2022-12-27T17:13:54.152Z,3.40
2022-12-27T17:16:24.149Z,3.37
2022-12-27T17:18:55.353Z,3.43
2022-12-27T17:21:30.145Z,3.93
2022-12-27T17:24:01.629Z,3.93
2022-12-27T17:26:53.330Z,3.70
2022-12-27T17:29:39.788Z,4.10
2022-12-27T17:32:18.119Z,3.57
2022-12-27T17:34:52.657Z,4.10
2022-12-27T17:37:26.536Z,4.20
2022-12-27T17:40:22.221Z,3.87
2022-12-27T17:43:14.868Z,3.77
2022-12-27T17:45:48.090Z,4.97
2022-12-27T17:51:28.270Z,5.40
2022-12-27T17:54:15.107Z,5.30
2022-12-27T17:57:00.248Z,3.93
2022-12-27T17:59:32.876Z,4.83
2022-12-27T18:02:06.228Z,5.03
2022-12-27T18:04:38.395Z,4.37
2022-12-27T18:07:10.298Z,5.53
2022-12-27T18:09:40.963Z,4.50
2022-12-27T18:12:15.731Z,5.00
2022-12-27T18:14:44.087Z,4.73
2022-12-27T18:17:28.514Z,5.23
2022-12-27T18:20:00.245Z,5.33
2022-12-27T18:22:28.699Z,5.43
2022-12-27T18:24:56.739Z,5.17
2022-12-27T18:27:27.234Z,3.97
2022-12-27T18:29:55.437Z,5.37
2022-12-27T18:32:24.436Z,5.00
2022-12-27T18:34:57.290Z,5.33
2022-12-27T18:38:09.720Z,6.60
2022-12-27T18:40:38.179Z,4.87
2022-12-27T18:43:28.499Z,5.50
2022-12-27T18:45:59.697Z,5.60
2022-12-27T18:48:29.354Z,5.03
2022-12-27T18:50:59.342Z,5.20
2022-12-27T18:53:33.250Z,5.53
2022-12-27T18:56:08.874Z,5.20
2022-12-27T18:59:02.514Z,5.53
2022-12-27T19:01:36.897Z,5.00
2022-12-27T19:04:26.512Z,4.67
2022-12-27T19:07:07.032Z,5.60
2022-12-27T19:09:38.413Z,4.93
2022-12-27T19:12:08.366Z,5.30
2022-12-27T19:14:43.763Z,5.60
2022-12-27T19:17:17.736Z,6.27
2022-12-27T19:19:47.435Z,5.37
2022-12-27T19:22:36.100Z,5.90
2022-12-27T19:25:24.464Z,6.10
2022-12-27T19:28:00.189Z,5.40
2022-12-27T19:30:40.744Z,5.97
2022-12-27T19:33:12.988Z,5.27
2022-12-27T19:35:50.246Z,5.80
2022-12-27T19:38:29.510Z,5.67
2022-12-27T19:41:03.552Z,4.70
2022-12-27T19:43:37.192Z,5.30
2022-12-27T19:46:06.950Z,6.10
2022-12-27T19:48:35.176Z,5.27
2022-12-27T19:51:03.589Z,5.37
2022-12-27T19:53:36.292Z,5.60
2022-12-27T19:56:04.651Z,5.80
2022-12-27T19:58:33.016Z,5.77
2022-12-27T20:01:04.405Z,5.33
2022-12-27T20:03:34.312Z,5.67
2022-12-27T20:06:14.908Z,5.37
2022-12-27T20:08:50.487Z,6.00
2022-12-27T20:11:21.456Z,5.77
2022-12-27T20:13:50.182Z,5.50
2022-12-27T20:16:20.219Z,5.93
2022-12-27T20:18:49.990Z,5.57
2022-12-27T20:21:20.149Z,5.43
2022-12-27T20:23:48.492Z,5.67
2022-12-27T20:26:19.957Z,5.70
2022-12-27T20:29:05.423Z,5.03
2022-12-27T20:31:44.291Z,4.60
2022-12-27T20:34:26.895Z,5.00
2022-12-27T20:37:02.984Z,4.97
2022-12-27T20:39:31.059Z,5.73
2022-12-27T20:41:59.271Z,5.77
2022-12-27T20:44:27.939Z,4.97
2022-12-27T20:46:56.046Z,5.60
2022-12-27T20:49:32.656Z,5.60
2022-12-27T20:52:01.045Z,5.60
2022-12-27T20:54:29.094Z,5.47
2022-12-27T20:56:57.229Z,5.60
2022-12-27T20:59:25.479Z,7.40
2022-12-27T21:01:57.236Z,7.13
2022-12-27T21:04:33.944Z,5.90
2022-12-27T21:07:04.789Z,6.93
2022-12-27T21:09:34.117Z,7.50
2022-12-27T21:12:02.648Z,6.90
2022-12-27T21:14:30.861Z,6.33
2022-12-27T21:16:59.190Z,6.43
2022-12-27T21:19:28.730Z,7.00
2022-12-27T21:21:56.978Z,5.83
2022-12-27T21:24:25.241Z,7.53
2022-12-27T21:26:56.539Z,6.63
2022-12-27T21:29:24.986Z,8.10
2022-12-27T21:31:53.792Z,8.57
2022-12-27T21:34:43.414Z,7.23
2022-12-27T21:37:13.525Z,8.70
2022-12-27T21:39:41.986Z,6.47
2022-12-27T21:42:11.025Z,6.77
2022-12-27T21:44:39.131Z,7.77
2022-12-27T21:47:07.422Z,7.70
2022-12-27T21:49:40.485Z,8.57
2022-12-27T21:52:08.948Z,7.33
2022-12-27T21:54:38.312Z,7.87
2022-12-27T21:57:06.603Z,7.77
2022-12-27T21:59:34.893Z,7.83
2022-12-27T22:02:10.063Z,6.83
2022-12-27T22:04:45.962Z,7.63
2022-12-27T22:07:14.139Z,6.90
2022-12-27T22:09:42.367Z,7.10
2022-12-27T22:12:13.730Z,7.50
2022-12-27T22:14:44.445Z,6.87
2022-12-27T22:17:12.656Z,7.03
2022-12-27T22:19:43.369Z,7.10
2022-12-27T22:22:11.661Z,5.57
2022-12-27T22:24:39.703Z,5.40
2022-12-27T22:27:10.910Z,6.37
2022-12-27T22:29:39.049Z,5.27
2022-12-27T22:32:08.873Z,5.90
2022-12-27T22:34:38.966Z,5.07
2022-12-27T22:37:08.519Z,5.57
2022-12-27T22:39:36.621Z,5.17
2022-12-27T22:42:05.153Z,5.77
2022-12-27T22:44:33.250Z,5.53
2022-12-27T22:49:51.677Z,4.87
2022-12-27T22:52:22.789Z,5.57
2022-12-27T22:55:04.910Z,5.13
2022-12-27T22:57:34.994Z,4.90
2022-12-27T23:00:03.221Z,4.73
2022-12-27T23:02:31.547Z,4.40
2022-12-27T23:04:59.836Z,4.13
2022-12-27T23:08:05.749Z,4.50
2022-12-27T23:10:21.039Z,3.97
2022-12-27T23:12:53.799Z,3.87
2022-12-27T23:15:22.211Z,3.90
2022-12-27T23:18:03.184Z,3.40
2022-12-27T23:20:33.708Z,3.80
2022-12-27T23:23:06.591Z,3.10
2022-12-27T23:25:40.802Z,3.83
2022-12-27T23:28:39.320Z,3.17
2022-12-27T23:34:36.400Z,2.83
2022-12-27T23:37:22.460Z,3.37
2022-12-27T23:40:00.963Z,2.83
2022-12-27T23:43:41.999Z,2.57
2022-12-27T23:46:13.353Z,2.57
2022-12-27T23:48:45.220Z,2.80
2022-12-27T23:51:20.076Z,2.63
2022-12-27T23:53:53.021Z,2.60
2022-12-27T23:56:47.495Z,2.33
2022-12-27T23:59:49.676Z,2.17
